createdAt,value
2023-03-03T00:00:21.570Z,24.47
2023-03-03T00:02:49.610Z,23.60
2023-03-03T00:05:18.596Z,22.83
2023-03-03T00:07:47.886Z,24.37
2023-03-03T00:10:15.927Z,26.00
2023-03-03T00:12:48.519Z,24.93
2023-03-03T00:15:20.106Z,24.90
2023-03-03T00:17:48.721Z,23.37
2023-03-03T00:20:34.602Z,26.93
2023-03-03T00:23:24.185Z,26.03
2023-03-03T00:25:54.436Z,24.80
2023-03-03T00:28:27.295Z,24.33
2023-03-03T00:30:58.818Z,26.17
2023-03-03T00:33:33.571Z,26.30
2023-03-03T00:36:28.631Z,27.30
2023-03-03T00:38:59.029Z,26.37
2023-03-03T00:41:29.056Z,28.70
2023-03-03T00:43:57.181Z,27.30
2023-03-03T00:46:26.573Z,26.93
2023-03-03T00:48:54.580Z,26.70
2023-03-03T00:51:28.725Z,27.03
2023-03-03T00:53:57.312Z,28.03
2023-03-03T00:56:25.731Z,25.23
2023-03-03T00:58:54.306Z,26.53
2023-03-03T01:01:22.686Z,28.30
2023-03-03T01:03:52.310Z,27.10
2023-03-03T01:06:20.493Z,27.63
2023-03-03T01:08:48.498Z,27.90
2023-03-03T01:11:20.828Z,29.30
2023-03-03T01:13:50.545Z,27.90
2023-03-03T01:16:18.775Z,30.20
2023-03-03T01:18:47.397Z,29.30
2023-03-03T01:21:16.725Z,30.10
2023-03-03T01:23:44.762Z,29.70
2023-03-03T01:26:12.761Z,27.57
2023-03-03T01:28:40.808Z,27.57
2023-03-03T01:31:09.253Z,28.43
2023-03-03T01:33:37.720Z,28.13
2023-03-03T01:36:06.450Z,28.30
2023-03-03T01:38:36.951Z,28.07
2023-03-03T01:41:05.575Z,30.27
2023-03-03T01:43:34.447Z,31.20
2023-03-03T01:46:34.739Z,30.57
2023-03-03T01:49:07.379Z,28.67
2023-03-03T01:51:38.854Z,29.33
2023-03-03T01:54:15.428Z,30.83
2023-03-03T01:56:44.902Z,29.50
2023-03-03T01:59:17.501Z,29.97
2023-03-03T02:01:46.967Z,28.10
2023-03-03T02:04:15.507Z,30.40
2023-03-03T02:06:51.530Z,29.60
2023-03-03T02:09:28.498Z,27.47
2023-03-03T02:12:00.557Z,28.67
2023-03-03T02:14:28.629Z,27.70
2023-03-03T02:16:56.648Z,26.97
2023-03-03T02:19:33.977Z,28.90
2023-03-03T02:22:03.160Z,25.60
2023-03-03T02:24:39.497Z,28.73
2023-03-03T02:27:08.907Z,28.70
2023-03-03T02:29:36.894Z,29.83
2023-03-03T02:32:05.185Z,29.90
2023-03-03T02:34:44.573Z,29.43
2023-03-03T02:37:12.554Z,29.87
2023-03-03T02:39:40.581Z,29.27
2023-03-03T02:42:15.862Z,29.17
2023-03-03T02:44:44.008Z,28.90
2023-03-03T02:47:12.028Z,30.67
2023-03-03T02:49:40.035Z,30.37
2023-03-03T02:52:10.664Z,31.00
2023-03-03T02:54:39.190Z,31.10
2023-03-03T02:57:09.044Z,30.70
2023-03-03T02:59:37.178Z,29.23
2023-03-03T03:02:05.338Z,29.60
2023-03-03T03:04:33.452Z,29.57
2023-03-03T03:07:01.497Z,28.50
2023-03-03T03:09:29.603Z,28.40
2023-03-03T03:11:59.182Z,27.73
2023-03-03T03:14:28.813Z,28.20
2023-03-03T03:16:56.895Z,27.80
2023-03-03T03:19:24.959Z,28.70
2023-03-03T03:21:53.017Z,26.80
2023-03-03T03:24:21.015Z,26.20
2023-03-03T03:26:48.988Z,26.03
2023-03-03T03:29:17.353Z,26.50
2023-03-03T03:31:46.669Z,27.20
2023-03-03T03:34:15.036Z,25.83
2023-03-03T03:36:43.071Z,26.03
2023-03-03T03:39:11.086Z,28.00
2023-03-03T03:41:39.132Z,27.10
2023-03-03T03:44:07.104Z,25.83
2023-03-03T03:46:35.060Z,24.90
2023-03-03T03:49:04.350Z,25.30
2023-03-03T03:51:33.998Z,27.30
2023-03-03T03:54:01.938Z,24.53
2023-03-03T03:56:29.957Z,24.37
2023-03-03T03:58:58.042Z,24.40
2023-03-03T04:01:26.486Z,23.33
2023-03-03T04:03:54.565Z,24.53
2023-03-03T04:06:23.901Z,26.03
2023-03-03T04:08:51.940Z,25.73
2023-03-03T04:11:19.900Z,30.00
2023-03-03T04:13:47.916Z,27.20
2023-03-03T04:16:15.876Z,28.03
2023-03-03T04:18:46.454Z,28.00
2023-03-03T04:21:15.605Z,27.13
2023-03-03T04:23:44.924Z,30.07
2023-03-03T04:26:12.902Z,28.40
2023-03-03T04:28:40.856Z,27.80
2023-03-03T04:31:08.869Z,26.60
2023-03-03T04:33:36.915Z,27.87
2023-03-03T04:36:05.525Z,27.13
2023-03-03T04:38:33.594Z,26.33
2023-03-03T04:41:03.010Z,25.20
2023-03-03T04:43:31.028Z,26.83
2023-03-03T04:45:59.064Z,27.43
2023-03-03T04:48:27.133Z,26.40
2023-03-03T04:50:55.216Z,27.80
2023-03-03T04:53:23.740Z,27.73
2023-03-03T04:55:52.245Z,25.80
2023-03-03T04:58:21.923Z,26.33
2023-03-03T05:00:55.143Z,27.60
2023-03-03T05:03:23.377Z,25.20
2023-03-03T05:05:51.707Z,25.70
2023-03-03T05:08:19.765Z,27.13
2023-03-03T05:10:47.784Z,24.37
2023-03-03T05:13:17.188Z,25.83
2023-03-03T05:15:51.099Z,26.20
2023-03-03T05:18:19.797Z,25.17
2023-03-03T05:20:47.994Z,28.57
2023-03-03T05:23:16.012Z,27.40
2023-03-03T05:25:44.090Z,28.03
2023-03-03T05:28:12.709Z,29.97
2023-03-03T05:30:41.249Z,28.83
2023-03-03T05:33:14.775Z,27.97
2023-03-03T05:35:43.101Z,25.80
2023-03-03T05:38:11.627Z,25.00
2023-03-03T05:40:39.894Z,24.40
2023-03-03T05:43:08.198Z,27.07
2023-03-03T05:45:36.325Z,25.07
2023-03-03T05:48:05.046Z,26.40
2023-03-03T05:50:34.452Z,23.83
2023-03-03T05:53:03.331Z,26.80
2023-03-03T05:55:31.398Z,27.37
2023-03-03T05:57:59.403Z,25.70
2023-03-03T06:00:27.631Z,27.30
2023-03-03T06:02:56.073Z,24.50
2023-03-03T06:05:24.137Z,25.53
2023-03-03T06:07:53.581Z,24.13
2023-03-03T06:10:23.297Z,25.50
2023-03-03T06:12:52.187Z,23.83
2023-03-03T06:15:20.294Z,22.93
2023-03-03T06:17:48.439Z,22.93
2023-03-03T06:20:16.556Z,23.40
2023-03-03T06:22:44.633Z,22.07
2023-03-03T06:25:14.029Z,21.90
2023-03-03T06:27:41.991Z,22.67
2023-03-03T06:30:11.483Z,22.97
2023-03-03T06:32:39.522Z,23.40
2023-03-03T06:35:08.208Z,23.77
2023-03-03T06:37:36.302Z,22.43
2023-03-03T06:40:05.331Z,22.80
2023-03-03T06:42:34.628Z,23.10
2023-03-03T06:45:02.632Z,23.00
2023-03-03T06:47:31.670Z,20.83
2023-03-03T06:49:59.757Z,23.60
2023-03-03T06:52:28.881Z,21.60
2023-03-03T06:54:59.701Z,23.33
2023-03-03T06:57:32.555Z,24.00
2023-03-03T07:00:14.255Z,21.63
2023-03-03T07:02:42.429Z,21.67
2023-03-03T07:05:16.077Z,23.37
2023-03-03T07:07:44.453Z,22.20
2023-03-03T07:10:24.995Z,21.20
2023-03-03T07:12:54.494Z,22.03
2023-03-03T07:15:29.309Z,21.40
2023-03-03T07:17:59.689Z,20.93
2023-03-03T07:20:35.196Z,20.57
2023-03-03T07:23:15.715Z,20.10
2023-03-03T07:25:46.636Z,20.67
2023-03-03T07:28:23.414Z,19.60
2023-03-03T07:30:53.531Z,20.97
2023-03-03T07:33:27.282Z,20.13
2023-03-03T07:35:57.051Z,21.07
2023-03-03T07:38:35.797Z,20.50
2023-03-03T07:41:06.567Z,20.30
2023-03-03T07:43:39.101Z,21.23
2023-03-03T07:46:27.932Z,20.70
2023-03-03T07:48:57.684Z,20.87
2023-03-03T07:51:29.093Z,20.33
2023-03-03T07:54:15.850Z,19.83
2023-03-03T07:56:43.916Z,18.77
2023-03-03T07:59:22.130Z,20.47
2023-03-03T08:01:56.518Z,20.10
2023-03-03T08:04:29.645Z,19.70
2023-03-03T08:06:58.811Z,19.43
2023-03-03T08:09:39.059Z,18.43
2023-03-03T08:12:31.869Z,20.13
2023-03-03T08:15:20.434Z,21.37
2023-03-03T08:17:50.775Z,20.23
2023-03-03T08:20:53.214Z,18.50
2023-03-03T08:23:22.689Z,19.17
2023-03-03T08:25:52.758Z,20.87
2023-03-03T08:28:21.723Z,20.20
2023-03-03T08:30:54.374Z,20.43
2023-03-03T08:33:29.574Z,18.97
2023-03-03T08:35:57.606Z,19.57
2023-03-03T08:38:25.579Z,18.07
2023-03-03T08:40:53.663Z,17.70
2023-03-03T08:43:22.851Z,18.00
2023-03-03T08:45:52.540Z,17.30
2023-03-03T08:48:21.429Z,15.90
2023-03-03T08:50:51.022Z,17.33
2023-03-03T08:53:20.146Z,17.43
2023-03-03T08:55:48.891Z,18.20
2023-03-03T08:58:17.928Z,18.10
2023-03-03T09:00:48.918Z,17.17
2023-03-03T09:03:17.911Z,15.50
2023-03-03T09:05:46.186Z,16.60
2023-03-03T09:08:15.550Z,19.27
2023-03-03T09:10:43.609Z,16.50
2023-03-03T09:13:16.097Z,17.70
2023-03-03T09:15:44.736Z,16.50
2023-03-03T09:18:17.186Z,16.20
2023-03-03T09:20:46.444Z,17.13
2023-03-03T09:23:34.867Z,15.53
2023-03-03T09:26:28.145Z,17.10
2023-03-03T09:28:59.616Z,17.10
2023-03-03T09:31:32.758Z,16.03
2023-03-03T09:34:02.043Z,18.00
2023-03-03T09:36:36.541Z,18.43
2023-03-03T09:39:18.236Z,18.43
2023-03-03T09:42:09.136Z,19.30
2023-03-03T09:45:31.716Z,16.80
2023-03-03T09:48:41.629Z,18.03
2023-03-03T09:51:41.972Z,18.13
2023-03-03T09:54:21.770Z,18.37
2023-03-03T09:56:58.150Z,19.83
2023-03-03T09:59:42.282Z,19.03
2023-03-03T10:02:37.437Z,19.10
2023-03-03T10:05:20.381Z,18.43
2023-03-03T10:08:03.384Z,21.23
2023-03-03T10:10:46.858Z,21.10
2023-03-03T10:13:27.442Z,17.87
2023-03-03T10:16:19.962Z,19.23
2023-03-03T10:18:56.358Z,20.93
2023-03-03T10:21:28.405Z,19.87
2023-03-03T10:24:03.849Z,20.80
2023-03-03T10:27:13.009Z,20.17
2023-03-03T10:29:56.538Z,18.87
2023-03-03T10:32:52.092Z,17.90
2023-03-03T10:35:42.342Z,20.63
2023-03-03T10:38:28.169Z,21.53
2023-03-03T10:41:05.047Z,20.00
2023-03-03T10:43:49.819Z,18.37
2023-03-03T10:46:30.993Z,19.63
2023-03-03T10:49:20.952Z,17.90
2023-03-03T10:52:04.632Z,20.00
2023-03-03T10:55:01.715Z,20.33
2023-03-03T10:57:37.560Z,19.00
2023-03-03T11:00:21.605Z,18.73
2023-03-03T11:03:11.328Z,20.60
2023-03-03T11:05:43.813Z,19.53
2023-03-03T11:08:17.224Z,19.10
2023-03-03T11:10:53.466Z,19.50
2023-03-03T11:13:29.088Z,18.73
2023-03-03T11:16:29.171Z,19.60
2023-03-03T11:19:07.515Z,19.97
2023-03-03T11:21:42.862Z,20.80
2023-03-03T11:24:31.358Z,20.40
2023-03-03T11:27:16.481Z,20.43
2023-03-03T11:29:56.764Z,20.70
2023-03-03T11:32:38.676Z,20.60
2023-03-03T11:35:23.273Z,21.70
2023-03-03T11:38:27.391Z,19.17
2023-03-03T11:40:57.972Z,19.87
2023-03-03T11:43:37.088Z,20.00
2023-03-03T11:46:10.030Z,19.40
2023-03-03T11:48:47.390Z,20.97
2023-03-03T11:51:21.049Z,18.90
2023-03-03T11:53:59.066Z,21.57
2023-03-03T11:56:31.197Z,18.57
2023-03-03T11:59:29.669Z,21.70
2023-03-03T12:02:00.801Z,20.00
2023-03-03T12:04:35.439Z,20.40
2023-03-03T12:07:24.209Z,20.50
2023-03-03T12:10:02.912Z,21.27
2023-03-03T12:12:38.135Z,19.50
2023-03-03T12:15:16.701Z,20.37
2023-03-03T12:18:12.280Z,21.37
2023-03-03T12:20:51.972Z,21.40
2023-03-03T12:23:37.228Z,19.20
2023-03-03T12:26:12.925Z,18.70
2023-03-03T12:28:47.948Z,18.33
2023-03-03T12:31:28.226Z,17.83
2023-03-03T12:33:59.694Z,19.17
2023-03-03T12:36:55.081Z,19.33
2023-03-03T12:39:36.542Z,18.83
2023-03-03T12:42:12.365Z,18.80
2023-03-03T12:44:45.452Z,17.20
2023-03-03T12:47:19.877Z,17.33
2023-03-03T12:50:07.022Z,18.10
2023-03-03T12:52:47.692Z,20.20
2023-03-03T12:55:26.782Z,17.47
2023-03-03T12:58:04.035Z,16.67
2023-03-03T13:00:44.529Z,18.37
2023-03-03T13:03:31.559Z,17.10
2023-03-03T13:06:08.011Z,19.03
2023-03-03T13:08:57.243Z,18.43
2023-03-03T13:11:37.787Z,19.00
2023-03-03T13:14:16.718Z,18.07
2023-03-03T13:16:50.756Z,19.30
2023-03-03T13:19:22.968Z,17.77
2023-03-03T13:21:55.734Z,18.90
2023-03-03T13:24:31.119Z,19.37
2023-03-03T13:27:05.609Z,18.80
2023-03-03T13:29:38.622Z,18.17
2023-03-03T13:32:14.792Z,18.33
2023-03-03T13:34:52.520Z,17.20
2023-03-03T13:37:25.676Z,17.70
2023-03-03T13:40:02.467Z,19.33
2023-03-03T13:42:38.796Z,19.40
2023-03-03T13:45:18.284Z,19.93
2023-03-03T13:47:54.146Z,17.17
2023-03-03T13:50:28.300Z,19.37
2023-03-03T13:53:15.943Z,18.57
2023-03-03T13:55:59.557Z,17.90
2023-03-03T13:58:36.924Z,19.37
2023-03-03T14:01:13.558Z,17.83
2023-03-03T14:03:59.788Z,18.50
2023-03-03T14:06:29.575Z,18.70
2023-03-03T14:09:21.180Z,20.53
2023-03-03T14:11:59.270Z,19.40
2023-03-03T14:14:38.367Z,19.33
2023-03-03T14:17:16.446Z,20.03
2023-03-03T14:19:48.234Z,19.40
2023-03-03T14:22:23.769Z,19.67
2023-03-03T14:25:02.444Z,18.20
2023-03-03T14:27:36.845Z,19.67
2023-03-03T14:30:29.020Z,18.77
2023-03-03T14:33:02.756Z,19.00
2023-03-03T14:35:33.558Z,19.20
2023-03-03T14:38:07.168Z,18.60
2023-03-03T14:40:37.828Z,20.80
2023-03-03T14:43:23.733Z,18.30
2023-03-03T14:45:52.270Z,20.17
2023-03-03T14:48:22.754Z,19.20
2023-03-03T14:50:53.670Z,19.50
2023-03-03T14:53:31.845Z,20.40
2023-03-03T14:56:17.529Z,18.90
2023-03-03T14:58:47.342Z,20.63
2023-03-03T15:01:22.132Z,20.03
2023-03-03T15:03:58.920Z,19.80
2023-03-03T15:06:41.615Z,20.57
2023-03-03T15:09:33.869Z,19.73
2023-03-03T15:12:02.660Z,19.87
2023-03-03T15:14:45.512Z,20.50
2023-03-03T15:17:27.452Z,21.00
2023-03-03T15:20:24.932Z,20.27
2023-03-03T15:23:01.941Z,20.33
2023-03-03T15:25:43.515Z,19.40
2023-03-03T15:28:37.521Z,21.20
2023-03-03T15:31:13.898Z,19.57
2023-03-03T15:33:49.995Z,19.70
2023-03-03T15:36:30.840Z,21.77
2023-03-03T15:39:08.767Z,18.20
2023-03-03T15:41:44.681Z,18.17
2023-03-03T15:44:22.090Z,20.40
2023-03-03T15:47:18.536Z,18.93
2023-03-03T15:50:11.939Z,19.93
2023-03-03T15:52:49.570Z,19.67
2023-03-03T15:55:36.685Z,19.53
2023-03-03T15:58:29.975Z,19.20
2023-03-03T16:01:10.641Z,20.13
2023-03-03T16:03:46.454Z,21.73
2023-03-03T16:06:20.623Z,19.53
2023-03-03T16:08:57.776Z,19.53
2023-03-03T16:11:31.763Z,21.23
2023-03-03T16:14:22.995Z,20.23
2023-03-03T16:16:59.654Z,20.30
2023-03-03T16:19:39.560Z,21.07
2023-03-03T16:22:35.268Z,20.93
2023-03-03T16:25:22.111Z,20.57
2023-03-03T16:27:56.760Z,19.90
2023-03-03T16:30:29.254Z,19.90
2023-03-03T16:33:11.034Z,19.63
2023-03-03T16:35:45.850Z,20.70
2023-03-03T16:38:19.974Z,19.87
2023-03-03T16:40:53.877Z,20.23
2023-03-03T16:43:28.117Z,20.60
2023-03-03T16:46:00.795Z,20.50
2023-03-03T16:48:38.734Z,20.40
2023-03-03T16:51:22.023Z,19.70
2023-03-03T16:53:55.321Z,19.07
2023-03-03T16:56:26.558Z,20.40
2023-03-03T16:59:06.947Z,18.97
2023-03-03T17:01:43.501Z,19.70
2023-03-03T17:04:16.670Z,19.93
2023-03-03T17:06:54.657Z,20.17
2023-03-03T17:09:56.382Z,20.13
2023-03-03T17:12:41.406Z,19.67
2023-03-03T17:15:21.919Z,20.03
2023-03-03T17:18:00.038Z,20.30
2023-03-03T17:20:36.455Z,19.57
2023-03-03T17:23:26.773Z,20.40
2023-03-03T17:26:06.302Z,19.53
2023-03-03T17:28:45.181Z,21.03
2023-03-03T17:31:20.152Z,21.00
2023-03-03T17:34:19.119Z,19.03
2023-03-03T17:37:03.736Z,18.60
2023-03-03T17:40:12.110Z,20.53
2023-03-03T17:42:46.454Z,19.33
2023-03-03T17:45:15.815Z,19.57
2023-03-03T17:47:54.548Z,18.63
2023-03-03T17:50:48.499Z,20.80
2023-03-03T17:53:47.337Z,20.90
2023-03-03T17:56:21.847Z,21.13
2023-03-03T17:59:09.052Z,21.83
2023-03-03T18:01:59.105Z,20.20
2023-03-03T18:04:52.269Z,21.20
2023-03-03T18:07:33.107Z,22.67
2023-03-03T18:10:42.935Z,20.20
2023-03-03T18:13:30.774Z,19.63
2023-03-03T18:16:12.198Z,20.47
2023-03-03T18:19:02.115Z,21.30
2023-03-03T18:21:35.352Z,20.57
2023-03-03T18:24:30.109Z,21.77
2023-03-03T18:27:15.142Z,21.13
2023-03-03T18:30:35.382Z,21.13
2023-03-03T18:33:14.814Z,21.23
2023-03-03T18:35:44.783Z,21.33
2023-03-03T18:38:30.324Z,23.60
2023-03-03T18:41:11.638Z,21.80
2023-03-03T18:43:58.778Z,22.70
2023-03-03T18:46:49.354Z,22.67
2023-03-03T18:49:18.278Z,22.23
2023-03-03T18:52:14.776Z,24.07
2023-03-03T18:54:43.283Z,22.27
2023-03-03T18:57:19.422Z,24.10
2023-03-03T18:59:55.797Z,23.93
2023-03-03T19:02:38.970Z,23.70
2023-03-03T19:05:19.402Z,24.07
2023-03-03T19:07:53.572Z,24.90
2023-03-03T19:10:54.150Z,23.53
2023-03-03T19:13:47.592Z,23.93
2023-03-03T19:16:38.457Z,22.93
2023-03-03T19:19:15.100Z,23.80
2023-03-03T19:21:44.083Z,23.10
2023-03-03T19:24:36.132Z,25.70
2023-03-03T19:27:34.038Z,24.00
2023-03-03T19:30:24.876Z,25.07
2023-03-03T19:33:20.300Z,23.23
2023-03-03T19:36:11.074Z,23.93
2023-03-03T19:38:48.211Z,25.60
2023-03-03T19:41:31.788Z,24.13
2023-03-03T19:44:18.463Z,24.37
2023-03-03T19:47:06.271Z,23.47
2023-03-03T19:49:55.735Z,24.17
2023-03-03T19:52:39.394Z,24.20
2023-03-03T19:55:23.748Z,22.10
2023-03-03T19:58:09.151Z,23.13
2023-03-03T20:00:44.256Z,21.67
2023-03-03T20:03:41.193Z,22.90
2023-03-03T20:06:19.751Z,23.60
2023-03-03T20:09:00.205Z,23.13
2023-03-03T20:11:48.082Z,24.20
2023-03-03T20:14:45.964Z,23.77
2023-03-03T20:17:45.487Z,27.67
2023-03-03T20:20:50.146Z,22.30
2023-03-03T20:23:26.534Z,23.77
2023-03-03T20:26:03.056Z,22.37
2023-03-03T20:28:53.355Z,21.90
2023-03-03T20:31:28.787Z,22.50
2023-03-03T20:34:08.948Z,23.20
2023-03-03T20:36:49.947Z,21.23
2023-03-03T20:39:32.215Z,20.33
2023-03-03T20:42:18.024Z,21.17
2023-03-03T20:45:06.244Z,21.73
2023-03-03T20:48:01.828Z,21.23
2023-03-03T20:50:41.123Z,20.67
2023-03-03T20:53:24.919Z,21.67
2023-03-03T20:56:05.814Z,21.03
2023-03-03T20:58:52.029Z,20.27
2023-03-03T21:01:29.866Z,20.47
2023-03-03T21:04:18.969Z,21.57
2023-03-03T21:06:47.114Z,20.60
2023-03-03T21:09:35.051Z,21.27
2023-03-03T21:12:10.918Z,20.37
2023-03-03T21:14:45.112Z,21.47
2023-03-03T21:17:27.289Z,22.37
2023-03-03T21:19:56.173Z,21.70
2023-03-03T21:22:25.517Z,22.50
2023-03-03T21:24:56.546Z,24.87
2023-03-03T21:27:29.877Z,21.57
2023-03-03T21:30:10.132Z,21.93
2023-03-03T21:32:41.076Z,21.87
2023-03-03T21:35:13.885Z,21.40
2023-03-03T21:37:50.967Z,19.87
2023-03-03T21:40:25.326Z,21.83
2023-03-03T21:42:54.746Z,23.37
2023-03-03T21:45:26.910Z,20.43
2023-03-03T21:47:56.737Z,19.73
2023-03-03T21:50:25.920Z,22.00
2023-03-03T21:52:56.118Z,20.53
2023-03-03T21:55:26.455Z,19.80
2023-03-03T21:57:54.783Z,21.77
2023-03-03T22:00:24.590Z,23.77
2023-03-03T22:02:52.712Z,21.77
2023-03-03T22:05:20.745Z,19.97
2023-03-03T22:07:48.904Z,20.57
2023-03-03T22:10:17.486Z,21.17
2023-03-03T22:12:45.474Z,24.50
2023-03-03T22:15:13.451Z,24.97
2023-03-03T22:17:43.163Z,21.97
2023-03-03T22:20:12.292Z,22.87
2023-03-03T22:22:40.302Z,22.40
2023-03-03T22:25:09.327Z,21.53
2023-03-03T22:27:37.428Z,22.27
2023-03-03T22:30:06.407Z,24.00
2023-03-03T22:32:34.474Z,25.37
2023-03-03T22:35:03.991Z,24.60
2023-03-03T22:37:31.988Z,23.30
2023-03-03T22:40:01.318Z,23.77
2023-03-03T22:42:29.591Z,24.20
2023-03-03T22:44:57.731Z,24.13
2023-03-03T22:47:25.949Z,23.57
2023-03-03T22:49:54.016Z,23.67
2023-03-03T22:52:23.349Z,22.73
2023-03-03T22:54:51.976Z,23.30
2023-03-03T22:57:19.972Z,21.70
2023-03-03T22:59:47.996Z,24.43
2023-03-03T23:02:16.011Z,23.90
2023-03-03T23:04:44.144Z,22.80
2023-03-03T23:07:12.915Z,23.07
2023-03-03T23:09:42.597Z,23.17
2023-03-03T23:12:10.587Z,23.13
2023-03-03T23:14:38.627Z,23.70
2023-03-03T23:17:09.928Z,24.57
2023-03-03T23:19:37.980Z,21.97
2023-03-03T23:22:06.032Z,23.87
2023-03-03T23:24:34.085Z,22.17
2023-03-03T23:27:05.467Z,24.27
2023-03-03T23:29:33.496Z,23.07
2023-03-03T23:32:01.672Z,23.20
2023-03-03T23:34:30.208Z,23.70
2023-03-03T23:36:58.342Z,24.10
2023-03-03T23:39:26.433Z,24.43
2023-03-03T23:41:54.505Z,22.93
2023-03-03T23:44:24.154Z,22.90
2023-03-03T23:46:52.356Z,23.20
2023-03-03T23:49:20.461Z,21.73
2023-03-03T23:51:48.460Z,23.73
2023-03-03T23:54:16.478Z,23.17
2023-03-03T23:56:44.590Z,23.90
2023-03-03T23:59:12.783Z,24.23
